sensor_id;sensor_type;location;lat;lon;timestamp;P1;durP1;ratioP1;P2;durP2;ratioP2
10825;SDS011;5466;55.898;14.094;2024-01-11T00:00:23;6.77;;;4.20;;
10825;SDS011;5466;55.898;14.094;2024-01-11T00:02:23;6.13;;;4.00;;
10825;SDS011;5466;55.898;14.094;2024-01-11T00:04:24;5.73;;;4.27;;
10825;SDS011;5466;55.898;14.094;2024-01-11T00:06:26;6.40;;;3.67;;
10825;SDS011;5466;55.898;14.094;2024-01-11T00:08:26;4.90;;;4.03;;
10825;SDS011;5466;55.898;14.094;2024-01-11T00:10:27;6.23;;;4.07;;
10825;SDS011;5466;55.898;14.094;2024-01-11T00:12:28;5.10;;;4.03;;
10825;SDS011;5466;55.898;14.094;2024-01-11T00:14:29;5.47;;;4.53;;
10825;SDS011;5466;55.898;14.094;2024-01-11T00:16:29;5.53;;;4.20;;
10825;SDS011;5466;55.898;14.094;2024-01-11T00:18:30;6.50;;;4.70;;
10825;SDS011;5466;55.898;14.094;2024-01-11T00:20:30;6.87;;;4.30;;
10825;SDS011;5466;55.898;14.094;2024-01-11T00:22:31;5.13;;;4.10;;
10825;SDS011;5466;55.898;14.094;2024-01-11T00:24:32;6.50;;;4.63;;
10825;SDS011;5466;55.898;14.094;2024-01-11T00:26:32;5.60;;;4.57;;
10825;SDS011;5466;55.898;14.094;2024-01-11T00:28:33;6.17;;;4.57;;
10825;SDS011;5466;55.898;14.094;2024-01-11T00:30:34;7.10;;;4.80;;
10825;SDS011;5466;55.898;14.094;2024-01-11T00:32:34;6.33;;;4.77;;
10825;SDS011;5466;55.898;14.094;2024-01-11T00:34:35;7.07;;;4.67;;
10825;SDS011;5466;55.898;14.094;2024-01-11T00:36:36;6.30;;;4.53;;
10825;SDS011;5466;55.898;14.094;2024-01-11T00:38:36;7.60;;;5.17;;
10825;SDS011;5466;55.898;14.094;2024-01-11T00:40:37;7.73;;;4.47;;
10825;SDS011;5466;55.898;14.094;2024-01-11T00:42:38;7.93;;;5.60;;
10825;SDS011;5466;55.898;14.094;2024-01-11T00:44:38;7.23;;;5.30;;
10825;SDS011;5466;55.898;14.094;2024-01-11T00:46:39;7.80;;;5.47;;
10825;SDS011;5466;55.898;14.094;2024-01-11T00:48:40;9.90;;;5.33;;
10825;SDS011;5466;55.898;14.094;2024-01-11T00:50:41;8.53;;;5.07;;
10825;SDS011;5466;55.898;14.094;2024-01-11T00:52:42;7.93;;;5.10;;
10825;SDS011;5466;55.898;14.094;2024-01-11T00:54:42;5.93;;;4.70;;
10825;SDS011;5466;55.898;14.094;2024-01-11T00:56:43;7.93;;;6.33;;
10825;SDS011;5466;55.898;14.094;2024-01-11T00:58:43;8.80;;;6.57;;
10825;SDS011;5466;55.898;14.094;2024-01-11T01:00:44;8.33;;;5.87;;
10825;SDS011;5466;55.898;14.094;2024-01-11T01:02:45;9.63;;;5.60;;
10825;SDS011;5466;55.898;14.094;2024-01-11T01:04:45;9.63;;;5.77;;
10825;SDS011;5466;55.898;14.094;2024-01-11T01:06:46;8.63;;;6.00;;
10825;SDS011;5466;55.898;14.094;2024-01-11T01:08:47;7.53;;;5.70;;
10825;SDS011;5466;55.898;14.094;2024-01-11T01:10:47;7.87;;;5.60;;
10825;SDS011;5466;55.898;14.094;2024-01-11T01:12:48;10.50;;;7.03;;
10825;SDS011;5466;55.898;14.094;2024-01-11T01:14:48;9.23;;;6.47;;
10825;SDS011;5466;55.898;14.094;2024-01-11T01:16:49;8.57;;;5.37;;
10825;SDS011;5466;55.898;14.094;2024-01-11T01:18:50;8.47;;;5.47;;
10825;SDS011;5466;55.898;14.094;2024-01-11T01:20:50;9.60;;;6.13;;
10825;SDS011;5466;55.898;14.094;2024-01-11T01:22:51;10.27;;;6.33;;
10825;SDS011;5466;55.898;14.094;2024-01-11T01:24:51;10.13;;;6.70;;
10825;SDS011;5466;55.898;14.094;2024-01-11T01:26:52;10.63;;;6.90;;
10825;SDS011;5466;55.898;14.094;2024-01-11T01:28:53;11.07;;;6.97;;
10825;SDS011;5466;55.898;14.094;2024-01-11T01:30:54;9.50;;;6.73;;
10825;SDS011;5466;55.898;14.094;2024-01-11T01:32:55;10.53;;;7.60;;
10825;SDS011;5466;55.898;14.094;2024-01-11T01:34:56;10.70;;;6.80;;
10825;SDS011;5466;55.898;14.094;2024-01-11T01:36:56;9.50;;;6.60;;
10825;SDS011;5466;55.898;14.094;2024-01-11T01:38:57;9.23;;;6.60;;
10825;SDS011;5466;55.898;14.094;2024-01-11T01:40:57;9.70;;;6.73;;
10825;SDS011;5466;55.898;14.094;2024-01-11T01:42:58;11.77;;;7.33;;
10825;SDS011;5466;55.898;14.094;2024-01-11T01:45:02;9.17;;;6.73;;
10825;SDS011;5466;55.898;14.094;2024-01-11T01:47:03;10.63;;;7.20;;
10825;SDS011;5466;55.898;14.094;2024-01-11T01:49:04;10.33;;;7.10;;
10825;SDS011;5466;55.898;14.094;2024-01-11T01:51:05;11.47;;;8.10;;
10825;SDS011;5466;55.898;14.094;2024-01-11T01:53:06;9.23;;;6.83;;
10825;SDS011;5466;55.898;14.094;2024-01-11T01:55:07;11.97;;;7.30;;
10825;SDS011;5466;55.898;14.094;2024-01-11T01:57:10;12.23;;;7.97;;
10825;SDS011;5466;55.898;14.094;2024-01-11T01:59:12;11.83;;;7.80;;
10825;SDS011;5466;55.898;14.094;2024-01-11T02:01:13;12.43;;;8.17;;
10825;SDS011;5466;55.898;14.094;2024-01-11T02:03:15;11.80;;;7.70;;
10825;SDS011;5466;55.898;14.094;2024-01-11T02:05:16;12.47;;;7.57;;
10825;SDS011;5466;55.898;14.094;2024-01-11T02:07:18;12.47;;;7.80;;
10825;SDS011;5466;55.898;14.094;2024-01-11T02:09:19;13.17;;;8.53;;
10825;SDS011;5466;55.898;14.094;2024-01-11T02:11:20;10.97;;;7.80;;
10825;SDS011;5466;55.898;14.094;2024-01-11T02:13:23;12.53;;;7.97;;
10825;SDS011;5466;55.898;14.094;2024-01-11T02:15:24;12.23;;;8.00;;
10825;SDS011;5466;55.898;14.094;2024-01-11T02:17:24;13.80;;;8.37;;
10825;SDS011;5466;55.898;14.094;2024-01-11T02:19:25;11.63;;;8.47;;
10825;SDS011;5466;55.898;14.094;2024-01-11T02:21:25;12.43;;;8.30;;
10825;SDS011;5466;55.898;14.094;2024-01-11T02:23:28;11.77;;;7.70;;
10825;SDS011;5466;55.898;14.094;2024-01-11T02:25:30;14.83;;;8.60;;
10825;SDS011;5466;55.898;14.094;2024-01-11T02:27:31;12.63;;;8.27;;
10825;SDS011;5466;55.898;14.094;2024-01-11T02:29:45;11.23;;;7.77;;
10825;SDS011;5466;55.898;14.094;2024-01-11T02:31:46;14.83;;;8.53;;
10825;SDS011;5466;55.898;14.094;2024-01-11T02:33:47;12.93;;;8.90;;
10825;SDS011;5466;55.898;14.094;2024-01-11T02:35:48;14.33;;;8.83;;
10825;SDS011;5466;55.898;14.094;2024-01-11T02:37:48;13.37;;;8.63;;
10825;SDS011;5466;55.898;14.094;2024-01-11T02:39:49;11.00;;;7.57;;
10825;SDS011;5466;55.898;14.094;2024-01-11T02:41:50;13.00;;;8.97;;
10825;SDS011;5466;55.898;14.094;2024-01-11T02:43:52;12.97;;;8.07;;
10825;SDS011;5466;55.898;14.094;2024-01-11T02:45:54;13.77;;;8.87;;
10825;SDS011;5466;55.898;14.094;2024-01-11T02:47:55;11.90;;;8.23;;
10825;SDS011;5466;55.898;14.094;2024-01-11T02:49:56;11.57;;;7.53;;
10825;SDS011;5466;55.898;14.094;2024-01-11T02:51:57;12.50;;;8.07;;
10825;SDS011;5466;55.898;14.094;2024-01-11T02:53:57;11.97;;;8.03;;
10825;SDS011;5466;55.898;14.094;2024-01-11T02:55:58;12.07;;;8.00;;
10825;SDS011;5466;55.898;14.094;2024-01-11T02:57:59;11.17;;;7.80;;
10825;SDS011;5466;55.898;14.094;2024-01-11T02:59:59;13.00;;;8.20;;
10825;SDS011;5466;55.898;14.094;2024-01-11T03:02:00;10.37;;;6.63;;
10825;SDS011;5466;55.898;14.094;2024-01-11T03:04:00;11.93;;;8.37;;
10825;SDS011;5466;55.898;14.094;2024-01-11T03:06:01;11.83;;;8.20;;
10825;SDS011;5466;55.898;14.094;2024-01-11T03:08:02;12.13;;;7.87;;
10825;SDS011;5466;55.898;14.094;2024-01-11T03:10:03;11.87;;;7.50;;
10825;SDS011;5466;55.898;14.094;2024-01-11T03:12:04;13.57;;;8.77;;
10825;SDS011;5466;55.898;14.094;2024-01-11T03:14:06;13.03;;;8.37;;
10825;SDS011;5466;55.898;14.094;2024-01-11T03:16:07;12.13;;;7.60;;
10825;SDS011;5466;55.898;14.094;2024-01-11T03:18:07;10.90;;;8.17;;
10825;SDS011;5466;55.898;14.094;2024-01-11T03:20:08;12.87;;;8.20;;
10825;SDS011;5466;55.898;14.094;2024-01-11T03:22:11;11.53;;;8.00;;
10825;SDS011;5466;55.898;14.094;2024-01-11T03:24:13;11.27;;;7.73;;
10825;SDS011;5466;55.898;14.094;2024-01-11T03:26:14;13.63;;;8.73;;
10825;SDS011;5466;55.898;14.094;2024-01-11T03:28:16;12.37;;;8.40;;
10825;SDS011;5466;55.898;14.094;2024-01-11T03:30:17;14.80;;;8.33;;
10825;SDS011;5466;55.898;14.094;2024-01-11T03:32:18;15.40;;;9.10;;
10825;SDS011;5466;55.898;14.094;2024-01-11T03:34:19;13.17;;;7.80;;
10825;SDS011;5466;55.898;14.094;2024-01-11T03:36:22;10.97;;;7.30;;
10825;SDS011;5466;55.898;14.094;2024-01-11T03:38:23;12.70;;;8.20;;
10825;SDS011;5466;55.898;14.094;2024-01-11T03:40:24;10.77;;;7.70;;
10825;SDS011;5466;55.898;14.094;2024-01-11T03:42:25;13.13;;;8.27;;
10825;SDS011;5466;55.898;14.094;2024-01-11T03:44:25;10.93;;;7.80;;
10825;SDS011;5466;55.898;14.094;2024-01-11T03:46:26;12.50;;;8.17;;
10825;SDS011;5466;55.898;14.094;2024-01-11T03:48:28;10.67;;;7.00;;
10825;SDS011;5466;55.898;14.094;2024-01-11T03:50:29;10.63;;;7.17;;
10825;SDS011;5466;55.898;14.094;2024-01-11T03:52:29;10.70;;;7.20;;
10825;SDS011;5466;55.898;14.094;2024-01-11T03:54:30;10.60;;;6.97;;
10825;SDS011;5466;55.898;14.094;2024-01-11T03:56:31;11.20;;;7.60;;
10825;SDS011;5466;55.898;14.094;2024-01-11T03:58:31;10.03;;;6.90;;
10825;SDS011;5466;55.898;14.094;2024-01-11T04:00:32;11.23;;;7.43;;
10825;SDS011;5466;55.898;14.094;2024-01-11T04:02:33;11.50;;;6.90;;
10825;SDS011;5466;55.898;14.094;2024-01-11T04:04:34;12.00;;;6.87;;
10825;SDS011;5466;55.898;14.094;2024-01-11T04:06:34;10.63;;;7.07;;
10825;SDS011;5466;55.898;14.094;2024-01-11T04:08:35;11.90;;;7.90;;
10825;SDS011;5466;55.898;14.094;2024-01-11T04:10:36;10.17;;;6.80;;
10825;SDS011;5466;55.898;14.094;2024-01-11T04:12:36;11.83;;;7.87;;
10825;SDS011;5466;55.898;14.094;2024-01-11T04:14:38;10.63;;;6.83;;
10825;SDS011;5466;55.898;14.094;2024-01-11T04:16:42;9.33;;;6.97;;
10825;SDS011;5466;55.898;14.094;2024-01-11T04:18:43;9.00;;;6.37;;
10825;SDS011;5466;55.898;14.094;2024-01-11T04:20:43;10.30;;;6.70;;
10825;SDS011;5466;55.898;14.094;2024-01-11T04:22:44;10.07;;;6.40;;
10825;SDS011;5466;55.898;14.094;2024-01-11T04:24:44;10.03;;;6.83;;
10825;SDS011;5466;55.898;14.094;2024-01-11T04:26:45;10.57;;;6.57;;
10825;SDS011;5466;55.898;14.094;2024-01-11T04:28:46;10.63;;;7.40;;
10825;SDS011;5466;55.898;14.094;2024-01-11T04:30:47;11.63;;;7.07;;
10825;SDS011;5466;55.898;14.094;2024-01-11T04:32:48;10.47;;;7.13;;
10825;SDS011;5466;55.898;14.094;2024-01-11T04:34:49;11.83;;;7.80;;
10825;SDS011;5466;55.898;14.094;2024-01-11T04:36:49;9.23;;;6.77;;
10825;SDS011;5466;55.898;14.094;2024-01-11T04:38:50;12.27;;;7.77;;
10825;SDS011;5466;55.898;14.094;2024-01-11T04:40:50;14.70;;;9.33;;
10825;SDS011;5466;55.898;14.094;2024-01-11T04:42:51;10.63;;;7.33;;
10825;SDS011;5466;55.898;14.094;2024-01-11T04:44:52;13.60;;;7.30;;
10825;SDS011;5466;55.898;14.094;2024-01-11T04:46:52;11.97;;;6.97;;
10825;SDS011;5466;55.898;14.094;2024-01-11T04:48:53;12.50;;;7.70;;
10825;SDS011;5466;55.898;14.094;2024-01-11T04:50:54;9.97;;;6.43;;
10825;SDS011;5466;55.898;14.094;2024-01-11T04:52:54;12.53;;;7.97;;
10825;SDS011;5466;55.898;14.094;2024-01-11T04:54:55;11.60;;;6.77;;
10825;SDS011;5466;55.898;14.094;2024-01-11T04:56:55;8.90;;;6.67;;
10825;SDS011;5466;55.898;14.094;2024-01-11T04:58:56;11.80;;;7.00;;
10825;SDS011;5466;55.898;14.094;2024-01-11T05:00:57;12.63;;;7.93;;
10825;SDS011;5466;55.898;14.094;2024-01-11T05:02:57;13.77;;;6.83;;
10825;SDS011;5466;55.898;14.094;2024-01-11T05:04:58;12.13;;;7.30;;
10825;SDS011;5466;55.898;14.094;2024-01-11T05:07:00;12.63;;;7.27;;
10825;SDS011;5466;55.898;14.094;2024-01-11T05:09:01;10.83;;;7.07;;
10825;SDS011;5466;55.898;14.094;2024-01-11T05:11:01;13.20;;;7.63;;
10825;SDS011;5466;55.898;14.094;2024-01-11T05:13:02;12.10;;;6.93;;
10825;SDS011;5466;55.898;14.094;2024-01-11T05:15:04;12.67;;;8.00;;
10825;SDS011;5466;55.898;14.094;2024-01-11T05:17:06;10.77;;;7.03;;
10825;SDS011;5466;55.898;14.094;2024-01-11T05:19:07;10.93;;;7.23;;
10825;SDS011;5466;55.898;14.094;2024-01-11T05:21:08;12.60;;;7.77;;
10825;SDS011;5466;55.898;14.094;2024-01-11T05:23:09;12.47;;;6.83;;
10825;SDS011;5466;55.898;14.094;2024-01-11T05:25:09;10.67;;;7.43;;
10825;SDS011;5466;55.898;14.094;2024-01-11T05:27:10;11.83;;;7.83;;
10825;SDS011;5466;55.898;14.094;2024-01-11T05:29:11;15.13;;;7.23;;
10825;SDS011;5466;55.898;14.094;2024-01-11T05:31:12;12.83;;;7.53;;
10825;SDS011;5466;55.898;14.094;2024-01-11T05:33:14;9.27;;;6.57;;
10825;SDS011;5466;55.898;14.094;2024-01-11T05:35:15;10.10;;;5.93;;
10825;SDS011;5466;55.898;14.094;2024-01-11T05:37:16;9.23;;;6.23;;
10825;SDS011;5466;55.898;14.094;2024-01-11T05:39:16;9.90;;;6.93;;
10825;SDS011;5466;55.898;14.094;2024-01-11T05:41:17;9.97;;;6.60;;
10825;SDS011;5466;55.898;14.094;2024-01-11T05:43:18;11.03;;;6.43;;
10825;SDS011;5466;55.898;14.094;2024-01-11T05:45:18;9.40;;;6.93;;
10825;SDS011;5466;55.898;14.094;2024-01-11T05:47:19;11.93;;;7.80;;
10825;SDS011;5466;55.898;14.094;2024-01-11T05:49:19;10.67;;;6.73;;
10825;SDS011;5466;55.898;14.094;2024-01-11T05:51:20;10.63;;;6.77;;
10825;SDS011;5466;55.898;14.094;2024-01-11T05:53:21;10.57;;;6.80;;
10825;SDS011;5466;55.898;14.094;2024-01-11T05:55:21;8.93;;;6.23;;
10825;SDS011;5466;55.898;14.094;2024-01-11T05:57:22;9.13;;;5.67;;
10825;SDS011;5466;55.898;14.094;2024-01-11T05:59:23;9.80;;;6.23;;
10825;SDS011;5466;55.898;14.094;2024-01-11T06:01:23;9.67;;;6.17;;
10825;SDS011;5466;55.898;14.094;2024-01-11T06:03:24;10.70;;;6.90;;
10825;SDS011;5466;55.898;14.094;2024-01-11T06:05:25;8.23;;;5.10;;
10825;SDS011;5466;55.898;14.094;2024-01-11T06:07:26;8.10;;;5.73;;
10825;SDS011;5466;55.898;14.094;2024-01-11T06:09:26;7.40;;;5.23;;
10825;SDS011;5466;55.898;14.094;2024-01-11T06:11:27;9.90;;;5.80;;
10825;SDS011;5466;55.898;14.094;2024-01-11T06:13:28;7.67;;;5.47;;
10825;SDS011;5466;55.898;14.094;2024-01-11T06:15:28;9.17;;;6.30;;
10825;SDS011;5466;55.898;14.094;2024-01-11T06:17:29;6.40;;;5.47;;
10825;SDS011;5466;55.898;14.094;2024-01-11T06:19:30;7.50;;;5.10;;
10825;SDS011;5466;55.898;14.094;2024-01-11T06:21:30;8.07;;;5.63;;
10825;SDS011;5466;55.898;14.094;2024-01-11T06:23:31;6.90;;;5.43;;
10825;SDS011;5466;55.898;14.094;2024-01-11T06:25:31;8.03;;;5.70;;
10825;SDS011;5466;55.898;14.094;2024-01-11T06:27:32;7.73;;;5.50;;
10825;SDS011;5466;55.898;14.094;2024-01-11T06:29:33;6.03;;;4.90;;
10825;SDS011;5466;55.898;14.094;2024-01-11T06:31:33;8.90;;;5.97;;
10825;SDS011;5466;55.898;14.094;2024-01-11T06:33:34;8.53;;;5.63;;
10825;SDS011;5466;55.898;14.094;2024-01-11T06:35:36;7.03;;;5.43;;
10825;SDS011;5466;55.898;14.094;2024-01-11T06:37:37;7.07;;;5.33;;
10825;SDS011;5466;55.898;14.094;2024-01-11T06:39:38;8.07;;;5.70;;
10825;SDS011;5466;55.898;14.094;2024-01-11T06:41:38;6.87;;;5.10;;
10825;SDS011;5466;55.898;14.094;2024-01-11T06:43:39;8.73;;;5.87;;
10825;SDS011;5466;55.898;14.094;2024-01-11T06:45:42;7.47;;;5.57;;
10825;SDS011;5466;55.898;14.094;2024-01-11T06:47:43;9.00;;;6.30;;
10825;SDS011;5466;55.898;14.094;2024-01-11T06:49:45;8.53;;;4.83;;
10825;SDS011;5466;55.898;14.094;2024-01-11T06:51:46;8.87;;;5.73;;
10825;SDS011;5466;55.898;14.094;2024-01-11T06:53:47;6.27;;;5.17;;
10825;SDS011;5466;55.898;14.094;2024-01-11T06:55:47;7.10;;;5.40;;
10825;SDS011;5466;55.898;14.094;2024-01-11T06:57:48;7.03;;;4.93;;
10825;SDS011;5466;55.898;14.094;2024-01-11T06:59:49;7.27;;;5.30;;
10825;SDS011;5466;55.898;14.094;2024-01-11T07:01:50;8.00;;;5.57;;
10825;SDS011;5466;55.898;14.094;2024-01-11T07:03:51;7.03;;;5.13;;
10825;SDS011;5466;55.898;14.094;2024-01-11T07:05:51;7.87;;;5.27;;
10825;SDS011;5466;55.898;14.094;2024-01-11T07:07:52;7.20;;;5.00;;
10825;SDS011;5466;55.898;14.094;2024-01-11T07:09:53;7.10;;;5.07;;
10825;SDS011;5466;55.898;14.094;2024-01-11T07:11:55;5.53;;;4.57;;
10825;SDS011;5466;55.898;14.094;2024-01-11T07:13:56;8.50;;;4.67;;
10825;SDS011;5466;55.898;14.094;2024-01-11T07:15:57;7.60;;;4.90;;
10825;SDS011;5466;55.898;14.094;2024-01-11T07:17:58;6.43;;;5.10;;
10825;SDS011;5466;55.898;14.094;2024-01-11T07:19:59;7.07;;;5.40;;
10825;SDS011;5466;55.898;14.094;2024-01-11T07:22:00;6.63;;;4.93;;
10825;SDS011;5466;55.898;14.094;2024-01-11T07:24:00;7.60;;;4.87;;
10825;SDS011;5466;55.898;14.094;2024-01-11T07:26:01;7.30;;;5.30;;
10825;SDS011;5466;55.898;14.094;2024-01-11T07:28:02;7.00;;;5.50;;
10825;SDS011;5466;55.898;14.094;2024-01-11T07:30:03;7.47;;;5.07;;
10825;SDS011;5466;55.898;14.094;2024-01-11T07:32:06;7.07;;;4.93;;
10825;SDS011;5466;55.898;14.094;2024-01-11T07:34:07;9.20;;;5.50;;
10825;SDS011;5466;55.898;14.094;2024-01-11T07:36:07;7.10;;;5.70;;
10825;SDS011;5466;55.898;14.094;2024-01-11T07:38:09;7.90;;;5.27;;
10825;SDS011;5466;55.898;14.094;2024-01-11T07:40:09;7.90;;;5.77;;
10825;SDS011;5466;55.898;14.094;2024-01-11T07:42:10;8.17;;;5.03;;
10825;SDS011;5466;55.898;14.094;2024-01-11T07:44:11;7.07;;;5.40;;
10825;SDS011;5466;55.898;14.094;2024-01-11T07:46:11;6.80;;;4.90;;
10825;SDS011;5466;55.898;14.094;2024-01-11T07:48:12;7.63;;;5.30;;
10825;SDS011;5466;55.898;14.094;2024-01-11T07:50:13;7.27;;;5.33;;
10825;SDS011;5466;55.898;14.094;2024-01-11T07:52:13;6.67;;;5.07;;
10825;SDS011;5466;55.898;14.094;2024-01-11T07:54:14;6.67;;;5.20;;
10825;SDS011;5466;55.898;14.094;2024-01-11T07:56:15;6.90;;;4.73;;
10825;SDS011;5466;55.898;14.094;2024-01-11T07:58:16;7.87;;;4.43;;
10825;SDS011;5466;55.898;14.094;2024-01-11T08:00:16;7.70;;;4.83;;
10825;SDS011;5466;55.898;14.094;2024-01-11T08:02:17;7.47;;;5.43;;
10825;SDS011;5466;55.898;14.094;2024-01-11T08:04:18;6.30;;;4.93;;
10825;SDS011;5466;55.898;14.094;2024-01-11T08:06:18;7.30;;;5.17;;
10825;SDS011;5466;55.898;14.094;2024-01-11T08:08:19;5.93;;;4.53;;
10825;SDS011;5466;55.898;14.094;2024-01-11T08:10:19;6.23;;;5.00;;
10825;SDS011;5466;55.898;14.094;2024-01-11T08:12:20;7.20;;;5.10;;
10825;SDS011;5466;55.898;14.094;2024-01-11T08:14:21;8.27;;;5.93;;
10825;SDS011;5466;55.898;14.094;2024-01-11T08:16:21;15.30;;;5.80;;
10825;SDS011;5466;55.898;14.094;2024-01-11T08:18:22;10.10;;;6.10;;
10825;SDS011;5466;55.898;14.094;2024-01-11T08:20:23;10.63;;;6.53;;
10825;SDS011;5466;55.898;14.094;2024-01-11T08:22:24;7.50;;;5.47;;
10825;SDS011;5466;55.898;14.094;2024-01-11T08:24:25;8.07;;;5.80;;
10825;SDS011;5466;55.898;14.094;2024-01-11T08:26:25;8.17;;;4.83;;
10825;SDS011;5466;55.898;14.094;2024-01-11T08:28:26;6.93;;;4.97;;
10825;SDS011;5466;55.898;14.094;2024-01-11T08:30:26;7.00;;;5.17;;
10825;SDS011;5466;55.898;14.094;2024-01-11T08:32:27;7.67;;;5.27;;
10825;SDS011;5466;55.898;14.094;2024-01-11T08:34:28;7.47;;;5.60;;
10825;SDS011;5466;55.898;14.094;2024-01-11T08:36:32;8.60;;;5.97;;
10825;SDS011;5466;55.898;14.094;2024-01-11T08:38:34;9.00;;;5.37;;
10825;SDS011;5466;55.898;14.094;2024-01-11T08:40:35;9.50;;;4.60;;
10825;SDS011;5466;55.898;14.094;2024-01-11T08:42:36;8.23;;;5.63;;
10825;SDS011;5466;55.898;14.094;2024-01-11T08:44:43;6.87;;;5.07;;
10825;SDS011;5466;55.898;14.094;2024-01-11T08:46:44;6.57;;;4.73;;
10825;SDS011;5466;55.898;14.094;2024-01-11T08:48:45;5.90;;;5.27;;
10825;SDS011;5466;55.898;14.094;2024-01-11T08:50:45;6.53;;;5.00;;
10825;SDS011;5466;55.898;14.094;2024-01-11T08:52:46;6.23;;;4.53;;
10825;SDS011;5466;55.898;14.094;2024-01-11T08:54:47;6.03;;;5.00;;
10825;SDS011;5466;55.898;14.094;2024-01-11T08:56:49;5.60;;;4.23;;
10825;SDS011;5466;55.898;14.094;2024-01-11T08:58:50;5.73;;;4.53;;
10825;SDS011;5466;55.898;14.094;2024-01-11T09:00:50;6.00;;;4.90;;
10825;SDS011;5466;55.898;14.094;2024-01-11T09:02:51;7.83;;;4.93;;
10825;SDS011;5466;55.898;14.094;2024-01-11T09:04:52;6.20;;;4.40;;
10825;SDS011;5466;55.898;14.094;2024-01-11T09:06:52;6.87;;;4.83;;
10825;SDS011;5466;55.898;14.094;2024-01-11T09:08:53;4.47;;;3.53;;
10825;SDS011;5466;55.898;14.094;2024-01-11T09:10:53;5.30;;;4.30;;
10825;SDS011;5466;55.898;14.094;2024-01-11T09:12:54;5.07;;;4.33;;
10825;SDS011;5466;55.898;14.094;2024-01-11T09:14:55;6.60;;;4.57;;
10825;SDS011;5466;55.898;14.094;2024-01-11T09:16:55;5.60;;;3.80;;
10825;SDS011;5466;55.898;14.094;2024-01-11T09:18:56;7.63;;;4.40;;
10825;SDS011;5466;55.898;14.094;2024-01-11T09:20:56;10.43;;;4.83;;
10825;SDS011;5466;55.898;14.094;2024-01-11T09:22:57;9.67;;;4.70;;
10825;SDS011;5466;55.898;14.094;2024-01-11T09:24:57;6.30;;;4.40;;
10825;SDS011;5466;55.898;14.094;2024-01-11T09:26:58;6.37;;;4.13;;
10825;SDS011;5466;55.898;14.094;2024-01-11T09:28:59;4.33;;;3.50;;
10825;SDS011;5466;55.898;14.094;2024-01-11T09:30:59;5.77;;;3.53;;
10825;SDS011;5466;55.898;14.094;2024-01-11T09:33:01;5.30;;;4.20;;
10825;SDS011;5466;55.898;14.094;2024-01-11T09:35:03;5.13;;;3.60;;
10825;SDS011;5466;55.898;14.094;2024-01-11T09:37:04;5.07;;;3.50;;
10825;SDS011;5466;55.898;14.094;2024-01-11T09:39:05;3.60;;;3.30;;
10825;SDS011;5466;55.898;14.094;2024-01-11T09:41:08;5.53;;;3.70;;
10825;SDS011;5466;55.898;14.094;2024-01-11T09:43:12;5.70;;;4.00;;
10825;SDS011;5466;55.898;14.094;2024-01-11T09:45:13;4.87;;;3.90;;
10825;SDS011;5466;55.898;14.094;2024-01-11T09:47:17;3.47;;;3.17;;
10825;SDS011;5466;55.898;14.094;2024-01-11T09:49:21;4.63;;;3.33;;
10825;SDS011;5466;55.898;14.094;2024-01-11T09:51:23;3.43;;;3.13;;
10825;SDS011;5466;55.898;14.094;2024-01-11T09:53:25;4.80;;;3.50;;
10825;SDS011;5466;55.898;14.094;2024-01-11T09:55:28;4.97;;;3.30;;
10825;SDS011;5466;55.898;14.094;2024-01-11T09:57:29;3.73;;;3.27;;
10825;SDS011;5466;55.898;14.094;2024-01-11T09:59:32;3.90;;;3.13;;
10825;SDS011;5466;55.898;14.094;2024-01-11T10:01:36;3.17;;;2.87;;
10825;SDS011;5466;55.898;14.094;2024-01-11T10:03:36;4.13;;;2.93;;
10825;SDS011;5466;55.898;14.094;2024-01-11T10:05:39;5.27;;;3.27;;
10825;SDS011;5466;55.898;14.094;2024-01-11T10:07:41;4.43;;;3.83;;
10825;SDS011;5466;55.898;14.094;2024-01-11T10:09:42;4.63;;;3.43;;
10825;SDS011;5466;55.898;14.094;2024-01-11T10:11:43;4.20;;;3.43;;
10825;SDS011;5466;55.898;14.094;2024-01-11T10:13:44;3.87;;;3.17;;
10825;SDS011;5466;55.898;14.094;2024-01-11T10:15:45;4.50;;;3.23;;
10825;SDS011;5466;55.898;14.094;2024-01-11T10:17:46;3.37;;;3.07;;
10825;SDS011;5466;55.898;14.094;2024-01-11T10:19:47;3.40;;;3.07;;
10825;SDS011;5466;55.898;14.094;2024-01-11T10:21:48;3.63;;;3.33;;
10825;SDS011;5466;55.898;14.094;2024-01-11T10:23:49;3.80;;;3.20;;
10825;SDS011;5466;55.898;14.094;2024-01-11T10:25:50;4.67;;;3.43;;
10825;SDS011;5466;55.898;14.094;2024-01-11T10:27:51;6.03;;;3.77;;
10825;SDS011;5466;55.898;14.094;2024-01-11T10:29:52;3.50;;;3.13;;
10825;SDS011;5466;55.898;14.094;2024-01-11T10:31:52;7.20;;;4.00;;
10825;SDS011;5466;55.898;14.094;2024-01-11T10:33:53;3.20;;;2.90;;
10825;SDS011;5466;55.898;14.094;2024-01-11T10:35:54;6.57;;;3.40;;
10825;SDS011;5466;55.898;14.094;2024-01-11T10:37:55;3.17;;;2.87;;
10825;SDS011;5466;55.898;14.094;2024-01-11T10:39:58;3.00;;;2.70;;
10825;SDS011;5466;55.898;14.094;2024-01-11T10:42:04;3.67;;;2.90;;
10825;SDS011;5466;55.898;14.094;2024-01-11T10:44:07;4.77;;;3.47;;
10825;SDS011;5466;55.898;14.094;2024-01-11T10:46:18;4.67;;;3.33;;
10825;SDS011;5466;55.898;14.094;2024-01-11T10:48:25;3.87;;;2.93;;
10825;SDS011;5466;55.898;14.094;2024-01-11T10:50:30;3.80;;;3.10;;
10825;SDS011;5466;55.898;14.094;2024-01-11T10:52:36;4.00;;;2.90;;
10825;SDS011;5466;55.898;14.094;2024-01-11T10:54:48;3.83;;;3.10;;
10825;SDS011;5466;55.898;14.094;2024-01-11T10:56:49;5.57;;;3.23;;
10825;SDS011;5466;55.898;14.094;2024-01-11T10:58:50;4.53;;;2.93;;
10825;SDS011;5466;55.898;14.094;2024-01-11T11:00:52;3.83;;;3.20;;
10825;SDS011;5466;55.898;14.094;2024-01-11T11:02:58;3.30;;;2.87;;
10825;SDS011;5466;55.898;14.094;2024-01-11T11:05:00;3.77;;;3.07;;
10825;SDS011;5466;55.898;14.094;2024-01-11T11:07:04;3.33;;;2.57;;
10825;SDS011;5466;55.898;14.094;2024-01-11T11:09:08;4.00;;;3.10;;
10825;SDS011;5466;55.898;14.094;2024-01-11T11:11:11;3.17;;;2.83;;
10825;SDS011;5466;55.898;14.094;2024-01-11T11:13:12;3.80;;;3.10;;
10825;SDS011;5466;55.898;14.094;2024-01-11T11:15:15;3.57;;;2.70;;
10825;SDS011;5466;55.898;14.094;2024-01-11T11:17:16;4.03;;;2.70;;
10825;SDS011;5466;55.898;14.094;2024-01-11T11:19:17;3.43;;;2.77;;
10825;SDS011;5466;55.898;14.094;2024-01-11T11:21:21;2.73;;;2.40;;
10825;SDS011;5466;55.898;14.094;2024-01-11T11:23:21;3.83;;;2.80;;
10825;SDS011;5466;55.898;14.094;2024-01-11T11:25:25;3.10;;;2.57;;
10825;SDS011;5466;55.898;14.094;2024-01-11T11:27:25;4.53;;;2.60;;
10825;SDS011;5466;55.898;14.094;2024-01-11T11:29:26;3.13;;;2.67;;
10825;SDS011;5466;55.898;14.094;2024-01-11T11:31:37;2.70;;;2.30;;
10825;SDS011;5466;55.898;14.094;2024-01-11T11:33:38;4.43;;;2.60;;
10825;SDS011;5466;55.898;14.094;2024-01-11T11:35:40;3.20;;;2.80;;
10825;SDS011;5466;55.898;14.094;2024-01-11T11:37:42;2.97;;;2.60;;
10825;SDS011;5466;55.898;14.094;2024-01-11T11:39:43;3.13;;;2.80;;
10825;SDS011;5466;55.898;14.094;2024-01-11T11:41:44;4.13;;;2.53;;
10825;SDS011;5466;55.898;14.094;2024-01-11T11:43:47;3.17;;;2.63;;
10825;SDS011;5466;55.898;14.094;2024-01-11T11:45:49;3.73;;;2.70;;
10825;SDS011;5466;55.898;14.094;2024-01-11T11:47:51;4.20;;;2.50;;
10825;SDS011;5466;55.898;14.094;2024-01-11T11:52:06;2.43;;;2.23;;
10825;SDS011;5466;55.898;14.094;2024-01-11T11:54:15;3.10;;;2.60;;
10825;SDS011;5466;55.898;14.094;2024-01-11T11:56:18;3.83;;;2.50;;
10825;SDS011;5466;55.898;14.094;2024-01-11T11:58:20;2.80;;;2.60;;
10825;SDS011;5466;55.898;14.094;2024-01-11T12:00:20;3.33;;;2.77;;
10825;SDS011;5466;55.898;14.094;2024-01-11T12:02:21;2.97;;;2.67;;
10825;SDS011;5466;55.898;14.094;2024-01-11T12:04:27;4.13;;;2.63;;
10825;SDS011;5466;55.898;14.094;2024-01-11T12:06:27;2.90;;;2.60;;
10825;SDS011;5466;55.898;14.094;2024-01-11T12:08:29;5.20;;;2.83;;